createdAt,value
2023-03-22T00:00:21.165Z,11.98
2023-03-22T00:02:26.248Z,13.60
2023-03-22T00:04:29.764Z,13.98
2023-03-22T00:06:33.298Z,12.93
2023-03-22T00:08:38.507Z,11.73
2023-03-22T00:10:43.054Z,11.88
2023-03-22T00:12:46.694Z,12.27
2023-03-22T00:14:49.905Z,13.05
2023-03-22T00:16:53.158Z,12.23
2023-03-22T00:18:56.418Z,12.10
2023-03-22T00:21:00.795Z,13.18
2023-03-22T00:23:04.040Z,13.23
2023-03-22T00:25:09.497Z,13.00
2023-03-22T00:27:12.844Z,13.30
2023-03-22T00:29:17.592Z,12.73
2023-03-22T00:31:21.031Z,13.27
2023-03-22T00:33:24.952Z,14.63
2023-03-22T00:35:28.335Z,13.93
2023-03-22T00:37:38.714Z,13.85
2023-03-22T00:39:42.004Z,14.40
2023-03-22T00:41:46.739Z,14.93
2023-03-22T00:43:51.223Z,15.18
2023-03-22T00:45:54.454Z,15.13
2023-03-22T00:47:57.726Z,14.45
2023-03-22T00:50:01.194Z,14.52
2023-03-22T00:52:04.682Z,14.93
2023-03-22T00:54:08.104Z,14.98
2023-03-22T00:56:14.020Z,14.82
2023-03-22T00:58:28.830Z,15.13
2023-03-22T01:00:33.657Z,14.55
2023-03-22T01:02:37.010Z,15.20
2023-03-22T01:04:40.320Z,14.55
2023-03-22T01:06:43.541Z,14.88
2023-03-22T01:08:46.743Z,14.57
2023-03-22T01:10:53.123Z,14.80
2023-03-22T01:12:56.873Z,14.32
2023-03-22T01:15:01.588Z,15.43
2023-03-22T01:17:05.432Z,15.30
2023-03-22T01:19:08.639Z,15.50
2023-03-22T01:21:12.235Z,14.65
2023-03-22T01:23:15.983Z,14.40
2023-03-22T01:25:19.570Z,13.93
2023-03-22T01:27:22.767Z,14.77
2023-03-22T01:29:26.960Z,14.25
2023-03-22T01:31:31.942Z,15.32
2023-03-22T01:33:35.475Z,14.20
2023-03-22T01:35:39.028Z,14.63
2023-03-22T01:37:43.127Z,14.68
2023-03-22T01:39:46.694Z,15.40
2023-03-22T01:41:52.352Z,15.32
2023-03-22T01:44:09.582Z,14.73
2023-03-22T01:46:13.343Z,15.38
2023-03-22T01:48:25.955Z,14.90
2023-03-22T01:50:29.974Z,15.48
2023-03-22T01:52:33.454Z,14.45
2023-03-22T01:54:44.990Z,15.20
2023-03-22T01:57:11.420Z,15.77
2023-03-22T01:59:17.588Z,15.60
2023-03-22T02:01:36.214Z,15.00
2023-03-22T02:03:49.497Z,14.55
2023-03-22T02:05:53.846Z,15.13
2023-03-22T02:07:59.470Z,14.38
2023-03-22T02:10:06.146Z,14.93
2023-03-22T02:12:28.958Z,15.70
2023-03-22T02:14:55.973Z,14.88
2023-03-22T02:17:34.855Z,15.23
2023-03-22T02:20:29.326Z,14.93
2023-03-22T02:23:08.761Z,15.40
2023-03-22T02:25:34.088Z,15.27
2023-03-22T02:28:13.764Z,16.02
2023-03-22T02:30:39.986Z,14.57
2023-03-22T02:33:03.415Z,15.15
2023-03-22T02:35:38.710Z,14.93
2023-03-22T02:38:01.556Z,14.93
2023-03-22T02:40:12.787Z,15.02
2023-03-22T02:42:28.479Z,14.02
2023-03-22T02:44:42.744Z,14.63
2023-03-22T02:46:49.208Z,15.15
2023-03-22T02:49:01.471Z,14.57
2023-03-22T02:51:09.480Z,14.77
2023-03-22T02:53:18.965Z,14.65
2023-03-22T02:55:28.170Z,14.30
2023-03-22T02:57:37.950Z,14.05
2023-03-22T02:59:43.507Z,14.50
2023-03-22T03:01:50.911Z,14.82
2023-03-22T03:03:57.709Z,14.50
2023-03-22T03:06:06.153Z,14.93
2023-03-22T03:08:13.351Z,14.80
2023-03-22T03:10:20.351Z,14.95
2023-03-22T03:12:27.031Z,14.75
2023-03-22T03:14:33.702Z,13.23
2023-03-22T03:16:37.266Z,14.07
2023-03-22T03:18:45.817Z,13.63
2023-03-22T03:21:02.456Z,13.90
2023-03-22T03:23:17.648Z,13.23
2023-03-22T03:25:29.247Z,13.13
2023-03-22T03:29:45.948Z,13.60
2023-03-22T03:31:54.759Z,13.30
2023-03-22T03:34:06.600Z,13.18
2023-03-22T03:36:12.482Z,14.13
2023-03-22T03:38:19.395Z,13.80
2023-03-22T03:40:27.319Z,13.98
2023-03-22T03:42:31.698Z,14.15
2023-03-22T03:44:38.615Z,13.82
2023-03-22T03:46:42.825Z,13.73
2023-03-22T03:48:50.797Z,14.25
2023-03-22T03:50:55.420Z,14.25
2023-03-22T03:52:58.813Z,13.95
2023-03-22T03:55:02.096Z,14.45
2023-03-22T03:57:08.921Z,14.15
2023-03-22T03:59:15.868Z,13.63
2023-03-22T04:01:21.520Z,13.30
2023-03-22T04:03:32.477Z,14.13
2023-03-22T04:05:47.769Z,14.32
2023-03-22T04:07:51.135Z,13.98
2023-03-22T04:09:54.842Z,13.38
2023-03-22T04:12:03.499Z,13.73
2023-03-22T04:14:06.937Z,13.48
2023-03-22T04:16:11.031Z,13.23
2023-03-22T04:18:15.933Z,12.60
2023-03-22T04:20:19.617Z,12.52
2023-03-22T04:22:23.710Z,13.02
2023-03-22T04:24:27.434Z,12.63
2023-03-22T04:26:30.824Z,12.30
2023-03-22T04:30:57.899Z,12.75
2023-03-22T04:33:23.007Z,12.85
2023-03-22T04:35:46.279Z,11.88
2023-03-22T04:37:50.070Z,12.85
2023-03-22T04:39:56.039Z,12.15
2023-03-22T04:42:10.382Z,12.77
2023-03-22T04:44:14.358Z,12.23
2023-03-22T04:46:25.465Z,12.00
2023-03-22T04:48:41.364Z,12.60
2023-03-22T04:50:46.632Z,12.82
2023-03-22T04:52:50.323Z,11.20
2023-03-22T04:54:53.777Z,11.88
2023-03-22T04:56:56.986Z,11.68
2023-03-22T04:59:02.677Z,12.38
2023-03-22T05:01:06.257Z,12.70
2023-03-22T05:03:09.832Z,11.93
2023-03-22T05:05:18.906Z,12.25
2023-03-22T05:07:23.725Z,11.98
2023-03-22T05:09:31.102Z,12.00
2023-03-22T05:11:34.841Z,12.00
2023-03-22T05:14:01.032Z,11.98
2023-03-22T05:16:05.622Z,11.13
2023-03-22T05:18:20.832Z,12.05
2023-03-22T05:20:25.564Z,10.73
2023-03-22T05:22:50.782Z,12.43
2023-03-22T05:24:55.713Z,11.68
2023-03-22T05:27:03.798Z,11.60
2023-03-22T05:29:08.114Z,11.73
2023-03-22T05:31:34.567Z,10.85
2023-03-22T05:33:39.292Z,11.02
2023-03-22T05:35:49.905Z,10.88
2023-03-22T05:37:53.693Z,11.43
2023-03-22T05:39:58.008Z,11.63
2023-03-22T05:42:11.889Z,10.73
2023-03-22T05:44:15.150Z,10.35
2023-03-22T05:46:28.088Z,10.45
2023-03-22T05:48:54.431Z,10.57
2023-03-22T05:51:00.633Z,10.82
2023-03-22T05:53:06.481Z,10.50
2023-03-22T05:55:20.533Z,10.57
2023-03-22T05:57:25.384Z,10.15
2023-03-22T05:59:28.730Z,9.80
2023-03-22T06:01:33.515Z,9.95
2023-03-22T06:03:58.938Z,10.00
2023-03-22T06:06:13.841Z,10.10
2023-03-22T06:08:26.539Z,9.95
2023-03-22T06:10:30.545Z,9.88
2023-03-22T06:12:34.168Z,9.57
2023-03-22T06:14:49.142Z,9.18
2023-03-22T06:17:10.800Z,9.30
2023-03-22T06:19:13.994Z,9.18
2023-03-22T06:21:18.573Z,9.68
2023-03-22T06:23:22.267Z,9.43
2023-03-22T06:25:25.516Z,8.48
2023-03-22T06:27:28.967Z,8.75
2023-03-22T06:29:32.408Z,8.45
2023-03-22T06:31:38.407Z,8.85
2023-03-22T06:33:45.485Z,8.25
2023-03-22T06:36:01.957Z,8.27
2023-03-22T06:38:16.500Z,7.93
2023-03-22T06:40:20.780Z,8.30
2023-03-22T06:42:24.002Z,7.43
2023-03-22T06:44:36.654Z,7.68
2023-03-22T06:47:12.104Z,7.30
2023-03-22T06:49:33.550Z,8.00
2023-03-22T06:51:36.741Z,8.45
2023-03-22T06:53:41.907Z,7.18
2023-03-22T06:55:45.413Z,7.70
2023-03-22T06:57:54.419Z,7.07
2023-03-22T06:59:57.745Z,7.63
2023-03-22T07:02:01.244Z,7.55
2023-03-22T07:04:04.825Z,7.50
2023-03-22T07:06:09.977Z,7.53
2023-03-22T07:08:17.176Z,7.55
2023-03-22T07:10:28.661Z,7.60
2023-03-22T07:12:32.795Z,7.60
2023-03-22T07:14:41.399Z,7.63
2023-03-22T07:17:04.847Z,7.68
2023-03-22T07:19:08.234Z,7.60
2023-03-22T07:21:12.946Z,7.97
2023-03-22T07:23:18.489Z,7.53
2023-03-22T07:25:27.914Z,8.18
2023-03-22T07:27:40.630Z,8.50
2023-03-22T07:29:44.315Z,7.50
2023-03-22T07:31:48.012Z,7.78
2023-03-22T07:34:20.344Z,7.53
2023-03-22T07:36:48.062Z,8.35
2023-03-22T07:38:52.196Z,7.80
2023-03-22T07:41:03.268Z,7.68
2023-03-22T07:43:22.939Z,8.68
2023-03-22T07:45:40.967Z,8.95
2023-03-22T07:48:13.114Z,9.15
2023-03-22T07:50:31.613Z,8.80
2023-03-22T07:52:37.157Z,8.57
2023-03-22T07:54:40.770Z,9.30
2023-03-22T07:56:48.071Z,8.70
2023-03-22T07:58:51.598Z,8.85
2023-03-22T08:00:55.060Z,9.98
2023-03-22T08:03:18.641Z,9.10
2023-03-22T08:05:40.768Z,9.55
2023-03-22T08:07:44.880Z,9.07
2023-03-22T08:09:50.929Z,9.95
2023-03-22T08:11:55.555Z,9.77
2023-03-22T08:13:59.545Z,9.82
2023-03-22T08:16:03.138Z,9.60
2023-03-22T08:18:08.780Z,10.48
2023-03-22T08:20:18.414Z,9.73
2023-03-22T08:22:29.980Z,9.55
2023-03-22T08:24:51.995Z,9.90
2023-03-22T08:27:04.508Z,9.85
2023-03-22T08:29:23.708Z,9.70
2023-03-22T08:31:27.226Z,10.25
2023-03-22T08:33:30.523Z,10.15
2023-03-22T08:35:33.794Z,9.77
2023-03-22T08:37:37.117Z,9.93
2023-03-22T08:39:42.114Z,9.85
2023-03-22T08:41:56.283Z,10.20
2023-03-22T08:44:03.350Z,9.43
2023-03-22T08:46:07.738Z,9.48
2023-03-22T08:48:11.185Z,9.10
2023-03-22T08:50:35.312Z,9.45
2023-03-22T08:52:53.798Z,9.35
2023-03-22T08:55:04.858Z,9.57
2023-03-22T08:57:40.400Z,9.38
2023-03-22T09:00:10.946Z,8.65
2023-03-22T09:02:27.622Z,8.68
2023-03-22T09:04:32.704Z,8.82
2023-03-22T09:06:37.537Z,8.30
2023-03-22T09:08:41.349Z,7.97
2023-03-22T09:10:52.303Z,8.18
2023-03-22T09:12:58.071Z,8.35
2023-03-22T09:15:01.410Z,8.02
2023-03-22T09:17:08.438Z,7.60
2023-03-22T09:19:11.781Z,6.80
2023-03-22T09:21:17.008Z,7.35
2023-03-22T09:23:30.425Z,6.85
2023-03-22T09:25:33.960Z,7.45
2023-03-22T09:27:37.403Z,7.55
2023-03-22T09:29:40.699Z,8.05
2023-03-22T09:31:49.703Z,7.28
2023-03-22T09:33:58.361Z,7.13
2023-03-22T09:36:02.440Z,6.38
2023-03-22T09:38:08.174Z,6.93
2023-03-22T09:40:13.725Z,6.80
2023-03-22T09:42:27.618Z,6.72
2023-03-22T09:44:35.282Z,6.35
2023-03-22T09:46:42.133Z,5.50
2023-03-22T09:48:48.397Z,5.47
2023-03-22T09:50:55.422Z,5.95
2023-03-22T09:52:59.702Z,5.70
2023-03-22T09:55:03.238Z,6.13
2023-03-22T09:57:12.280Z,5.60
2023-03-22T09:59:23.296Z,5.43
2023-03-22T10:01:37.473Z,5.53
2023-03-22T10:04:13.845Z,5.50
2023-03-22T10:06:21.774Z,4.88
2023-03-22T10:08:42.251Z,4.55
2023-03-22T10:10:45.671Z,4.28
2023-03-22T10:12:55.241Z,4.82
2023-03-22T10:15:06.846Z,4.45
2023-03-22T10:17:13.354Z,4.57
2023-03-22T10:19:24.423Z,4.45
2023-03-22T10:21:29.471Z,4.30
2023-03-22T10:23:39.179Z,4.20
2023-03-22T10:25:44.171Z,3.53
2023-03-22T10:27:50.740Z,3.90
2023-03-22T10:30:00.753Z,4.00
2023-03-22T10:32:16.087Z,4.25
2023-03-22T10:34:23.122Z,3.47
2023-03-22T10:36:34.814Z,3.20
2023-03-22T10:38:44.800Z,3.33
2023-03-22T10:40:50.587Z,3.15
2023-03-22T10:42:57.368Z,3.50
2023-03-22T10:45:03.661Z,3.20
2023-03-22T10:47:11.006Z,3.45
2023-03-22T10:49:20.073Z,3.20
2023-03-22T10:51:29.195Z,3.67
2023-03-22T10:53:39.552Z,3.75
2023-03-22T10:55:44.007Z,3.10
2023-03-22T10:57:57.620Z,3.50
2023-03-22T11:00:01.089Z,3.30
2023-03-22T11:02:04.554Z,3.10
2023-03-22T11:04:11.462Z,3.00
2023-03-22T11:06:17.453Z,3.17
2023-03-22T11:08:20.802Z,3.03
2023-03-22T11:10:32.743Z,2.95
2023-03-22T11:12:39.012Z,2.70
2023-03-22T11:14:44.898Z,3.55
2023-03-22T11:16:54.571Z,2.40
2023-03-22T11:18:59.630Z,2.60
2023-03-22T11:21:08.206Z,3.03
2023-03-22T11:23:14.657Z,2.75
2023-03-22T11:25:22.495Z,2.58
2023-03-22T11:27:29.390Z,3.05
2023-03-22T11:29:41.776Z,2.80
2023-03-22T11:32:02.888Z,2.50
2023-03-22T11:34:18.382Z,2.75
2023-03-22T11:36:21.848Z,2.75
2023-03-22T11:38:30.869Z,2.70
2023-03-22T11:40:36.792Z,2.72
2023-03-22T11:42:41.572Z,2.25
2023-03-22T11:44:45.837Z,2.92
2023-03-22T11:46:55.720Z,2.40
2023-03-22T11:49:01.811Z,2.28
2023-03-22T11:51:09.604Z,2.00
2023-03-22T11:53:16.607Z,1.88
2023-03-22T11:55:20.705Z,2.50
2023-03-22T11:57:27.141Z,2.10
2023-03-22T11:59:37.825Z,2.40
2023-03-22T12:01:48.240Z,2.10
2023-03-22T12:03:56.778Z,2.13
2023-03-22T12:06:04.705Z,2.00
2023-03-22T12:08:17.999Z,2.55
2023-03-22T12:10:27.873Z,2.00
2023-03-22T12:12:34.573Z,2.45
2023-03-22T12:14:45.909Z,2.30
2023-03-22T12:19:05.951Z,2.30
2023-03-22T12:21:11.356Z,2.42
2023-03-22T12:23:17.214Z,2.20
2023-03-22T12:25:24.448Z,2.70
2023-03-22T12:27:34.333Z,2.58
2023-03-22T12:29:43.954Z,2.30
2023-03-22T12:31:57.373Z,2.70
2023-03-22T12:34:04.394Z,2.97
2023-03-22T12:36:09.022Z,2.90
2023-03-22T12:38:25.161Z,2.60
2023-03-22T12:40:30.295Z,2.90
2023-03-22T12:42:47.901Z,2.80
2023-03-22T12:45:05.113Z,2.70
2023-03-22T12:47:16.899Z,2.85
2023-03-22T12:49:28.860Z,2.70
2023-03-22T12:51:32.129Z,2.80
2023-03-22T12:53:42.464Z,2.50
2023-03-22T12:55:48.404Z,2.50
2023-03-22T12:57:54.542Z,2.60
2023-03-22T13:00:10.176Z,2.90
2023-03-22T13:02:18.050Z,2.70
2023-03-22T13:04:33.554Z,2.90
2023-03-22T13:06:57.504Z,2.90
2023-03-22T13:09:19.080Z,2.75
2023-03-22T13:13:49.322Z,2.67
2023-03-22T13:16:03.124Z,2.60
2023-03-22T13:18:06.468Z,3.40
2023-03-22T13:20:28.112Z,2.80
2023-03-22T13:25:29.060Z,3.17
2023-03-22T13:27:41.839Z,3.20
2023-03-22T13:29:54.001Z,3.30
2023-03-22T13:32:00.013Z,3.80
2023-03-22T13:34:04.106Z,3.95
2023-03-22T13:36:25.041Z,3.90
2023-03-22T13:38:30.509Z,4.18
2023-03-22T13:40:39.637Z,4.57
2023-03-22T13:42:43.470Z,4.40
2023-03-22T13:44:53.040Z,4.20
2023-03-22T13:47:01.191Z,4.70
2023-03-22T13:49:27.989Z,4.47
2023-03-22T13:51:33.535Z,4.85
2023-03-22T13:53:37.774Z,5.03
2023-03-22T13:56:00.928Z,4.93
2023-03-22T13:58:05.595Z,4.70
2023-03-22T14:00:22.588Z,5.15
2023-03-22T14:02:30.086Z,5.10
2023-03-22T14:04:40.637Z,4.85
2023-03-22T14:06:51.207Z,4.50
2023-03-22T14:08:59.692Z,4.65
2023-03-22T14:11:18.141Z,4.05
2023-03-22T14:13:30.572Z,4.00
2023-03-22T14:15:38.566Z,4.30
2023-03-22T14:17:45.269Z,3.47
2023-03-22T14:19:50.891Z,3.25
